createdAt,value
2017-05-02T00:00:34.009Z,0
2017-05-02T00:01:33.741Z,0
2017-05-02T00:02:34.057Z,0
2017-05-02T00:03:34.080Z,0
2017-05-02T00:04:34.098Z,0
2017-05-02T00:05:34.113Z,0
2017-05-02T00:07:34.160Z,0
2017-05-02T00:08:34.208Z,0
2017-05-02T00:09:34.203Z,0
2017-05-02T00:10:34.225Z,0
2017-05-02T00:11:34.250Z,0
2017-05-02T00:12:48.585Z,0
2017-05-02T00:13:34.300Z,0
2017-05-02T00:14:34.314Z,0
2017-05-02T00:15:34.029Z,0
2017-05-02T00:16:34.377Z,0
2017-05-02T00:17:34.377Z,0
2017-05-02T00:19:34.419Z,0
2017-05-02T00:20:34.441Z,0
2017-05-02T00:21:34.466Z,0
2017-05-02T00:22:49.101Z,0
2017-05-02T00:23:49.127Z,0
2017-05-02T00:24:34.528Z,0
2017-05-02T00:25:34.559Z,0
2017-05-02T00:27:34.591Z,0
2017-05-02T00:28:49.234Z,0
2017-05-02T00:29:34.644Z,0
2017-05-02T00:30:34.659Z,0
2017-05-02T00:31:34.680Z,0
2017-05-02T00:32:34.703Z,0
2017-05-02T00:33:34.732Z,0
2017-05-02T00:34:34.441Z,0
2017-05-02T00:35:49.387Z,0
2017-05-02T00:36:34.788Z,0
2017-05-02T00:37:34.814Z,0
2017-05-02T00:38:34.835Z,0
2017-05-02T00:39:34.856Z,0
2017-05-02T00:40:34.875Z,0
2017-05-02T00:41:34.906Z,0
2017-05-02T00:43:49.562Z,0
2017-05-02T00:44:34.969Z,0
2017-05-02T00:45:34.987Z,0
2017-05-02T00:46:35.009Z,0
2017-05-02T00:47:35.034Z,0
2017-05-02T00:48:35.055Z,0
2017-05-02T00:49:34.775Z,0
2017-05-02T00:50:35.091Z,0
2017-05-02T00:51:35.118Z,0
2017-05-02T00:52:35.138Z,0
2017-05-02T00:53:35.173Z,0
2017-05-02T00:54:49.805Z,0
2017-05-02T00:55:35.200Z,0
2017-05-02T00:56:49.842Z,0
2017-05-02T00:57:35.244Z,0
2017-05-02T00:58:35.269Z,0
2017-05-02T00:59:35.288Z,0
2017-05-02T01:00:35.308Z,0
2017-05-02T01:01:35.364Z,0
2017-05-02T01:02:35.352Z,0
2017-05-02T01:03:35.376Z,0
2017-05-02T01:04:35.098Z,0
2017-05-02T01:05:35.421Z,0
2017-05-02T01:06:35.439Z,0
2017-05-02T01:07:35.460Z,0
2017-05-02T01:08:35.492Z,0
2017-05-02T01:09:50.122Z,0
2017-05-02T01:10:50.144Z,0
2017-05-02T01:11:35.240Z,0
2017-05-02T01:13:35.288Z,0
2017-05-02T01:14:35.306Z,0
2017-05-02T01:15:50.257Z,0
2017-05-02T01:16:35.350Z,0
2017-05-02T01:17:35.675Z,0
2017-05-02T01:18:35.703Z,0
2017-05-02T01:19:35.415Z,0
2017-05-02T01:20:35.742Z,0
2017-05-02T01:21:35.770Z,0
2017-05-02T01:22:35.779Z,0
2017-05-02T01:23:35.807Z,0
2017-05-02T01:24:35.830Z,0
2017-05-02T01:25:35.848Z,0
2017-05-02T01:26:35.872Z,0
2017-05-02T01:27:35.585Z,0
2017-05-02T01:28:50.527Z,0
2017-05-02T01:29:35.627Z,0
2017-05-02T01:30:35.950Z,0
2017-05-02T01:31:50.590Z,0
2017-05-02T01:32:35.995Z,0
2017-05-02T01:33:36.028Z,0
2017-05-02T01:34:36.038Z,0
2017-05-02T01:35:35.758Z,0
2017-05-02T01:36:36.082Z,0
2017-05-02T01:37:36.103Z,0
2017-05-02T01:38:36.124Z,0
2017-05-02T01:39:36.158Z,0
2017-05-02T01:40:36.162Z,0
2017-05-02T01:41:36.188Z,0
2017-05-02T01:42:36.243Z,0
2017-05-02T01:43:50.847Z,0
2017-05-02T01:45:36.276Z,0
2017-05-02T01:47:50.931Z,0
2017-05-02T01:48:36.337Z,0
2017-05-02T01:49:36.358Z,0
2017-05-02T01:50:36.378Z,0
2017-05-02T01:51:36.397Z,0
2017-05-02T01:52:36.121Z,0
2017-05-02T01:53:36.445Z,0
2017-05-02T01:54:36.463Z,0
2017-05-02T01:55:51.103Z,0
2017-05-02T01:56:36.509Z,0
2017-05-02T01:57:51.146Z,0
2017-05-02T01:58:36.245Z,0
2017-05-02T01:59:36.573Z,0
2017-05-02T02:00:36.589Z,0
2017-05-02T02:01:36.621Z,0
2017-05-02T02:02:36.632Z,0
2017-05-02T02:03:51.270Z,0
2017-05-02T02:04:36.676Z,0
2017-05-02T02:05:36.697Z,0
2017-05-02T02:06:36.715Z,0
2017-05-02T02:07:51.357Z,0
2017-05-02T02:08:36.760Z,0
2017-05-02T02:10:36.800Z,0
2017-05-02T02:11:36.822Z,0
2017-05-02T02:12:51.457Z,0
2017-05-02T02:13:36.901Z,0
2017-05-02T02:14:36.886Z,0
2017-05-02T02:15:51.525Z,0
2017-05-02T02:16:36.927Z,0
2017-05-02T02:17:36.951Z,0
2017-05-02T02:18:51.587Z,0
2017-05-02T02:19:36.991Z,0
2017-05-02T02:20:37.016Z,0
2017-05-02T02:21:37.067Z,0
2017-05-02T02:22:37.054Z,0
2017-05-02T02:23:51.694Z,0
2017-05-02T02:24:37.097Z,0
2017-05-02T02:25:51.733Z,0
2017-05-02T02:26:37.172Z,0
2017-05-02T02:27:37.161Z,0
2017-05-02T02:28:37.187Z,0
2017-05-02T02:29:37.206Z,0
2017-05-02T02:30:51.838Z,0
2017-05-02T02:31:51.860Z,0
2017-05-02T02:35:37.019Z,0
2017-05-02T02:36:37.044Z,0
2017-05-02T02:37:37.063Z,0
2017-05-02T02:38:37.084Z,0
2017-05-02T02:39:37.410Z,0
2017-05-02T02:40:37.429Z,0
2017-05-02T02:42:37.185Z,0
2017-05-02T02:43:52.108Z,0
2017-05-02T02:44:37.512Z,0
2017-05-02T02:45:37.533Z,0
2017-05-02T02:46:37.551Z,0
2017-05-02T02:47:37.578Z,0
2017-05-02T02:48:37.595Z,0
2017-05-02T02:49:37.615Z,0
2017-05-02T02:50:52.251Z,0
2017-05-02T02:51:52.281Z,0
2017-05-02T02:52:37.679Z,4
2017-05-02T02:53:37.705Z,4
2017-05-02T02:54:37.720Z,0
2017-05-02T02:55:37.741Z,0
2017-05-02T02:56:52.379Z,4
2017-05-02T02:57:37.782Z,4
2017-05-02T02:58:37.818Z,0
2017-05-02T02:59:52.438Z,4
2017-05-02T03:00:37.843Z,4
2017-05-02T03:01:52.478Z,4
2017-05-02T03:02:52.504Z,8
2017-05-02T03:03:37.908Z,4
2017-05-02T03:04:37.925Z,4
2017-05-02T03:05:37.948Z,8
2017-05-02T03:06:52.584Z,8
2017-05-02T03:07:37.989Z,8
2017-05-02T03:08:38.015Z,12
2017-05-02T03:09:38.028Z,16
2017-05-02T03:10:38.051Z,16
2017-05-02T03:11:52.690Z,20
2017-05-02T03:12:38.092Z,20
2017-05-02T03:13:38.111Z,24
2017-05-02T03:14:52.748Z,24
2017-05-02T03:15:52.769Z,32
2017-05-02T03:17:38.206Z,36
2017-05-02T03:20:38.254Z,52
2017-05-02T03:22:52.914Z,68
2017-05-02T03:23:38.322Z,72
2017-05-02T03:24:38.340Z,80
2017-05-02T03:25:38.360Z,88
2017-05-02T03:26:38.379Z,92
2017-05-02T03:27:38.400Z,104
2017-05-02T03:28:38.426Z,112
2017-05-02T03:29:38.438Z,120
2017-05-02T03:30:38.458Z,124
2017-05-02T03:31:53.096Z,132
2017-05-02T03:32:53.119Z,136
2017-05-02T03:33:38.526Z,144
2017-05-02T03:34:38.545Z,156
2017-05-02T03:35:38.562Z,164
2017-05-02T03:36:38.583Z,172
2017-05-02T03:37:38.000Z,176
2017-05-02T03:38:53.240Z,180
2017-05-02T03:39:38.645Z,188
2017-05-02T03:40:38.360Z,196
2017-05-02T03:41:38.688Z,204
2017-05-02T03:42:38.706Z,208
2017-05-02T03:43:38.731Z,220
2017-05-02T03:44:38.746Z,228
2017-05-02T03:45:38.768Z,240
2017-05-02T03:46:53.404Z,256
2017-05-02T03:47:38.812Z,264
2017-05-02T03:49:53.466Z,292
2017-05-02T03:51:38.890Z,316
2017-05-02T03:52:38.913Z,332
2017-05-02T03:53:53.550Z,348
2017-05-02T03:54:38.650Z,368
2017-05-02T03:55:38.969Z,400
2017-05-02T03:56:38.688Z,436
2017-05-02T03:57:38.710Z,472
2017-05-02T03:58:39.033Z,508
2017-05-02T03:59:39.054Z,540
2017-05-02T04:00:39.076Z,552
2017-05-02T04:01:39.095Z,560
2017-05-02T04:02:39.116Z,556
2017-05-02T04:03:39.138Z,548
2017-05-02T04:04:39.158Z,540
2017-05-02T04:05:39.176Z,524
2017-05-02T04:06:39.199Z,516
2017-05-02T04:07:39.223Z,512
2017-05-02T04:08:39.245Z,508
2017-05-02T04:09:38.954Z,500
2017-05-02T04:10:38.976Z,496
2017-05-02T04:11:39.302Z,492
2017-05-02T04:12:39.360Z,492
2017-05-02T04:13:39.341Z,496
2017-05-02T04:14:39.058Z,496
2017-05-02T04:15:39.388Z,492
2017-05-02T04:16:54.018Z,496
2017-05-02T04:17:54.038Z,512
2017-05-02T04:18:39.455Z,524
2017-05-02T04:19:39.463Z,548
2017-05-02T04:20:39.490Z,572
2017-05-02T04:21:39.503Z,604
2017-05-02T04:22:39.522Z,660
2017-05-02T04:23:39.545Z,708
2017-05-02T04:24:39.566Z,740
2017-05-02T04:25:54.200Z,760
2017-05-02T04:26:39.603Z,760
2017-05-02T04:27:39.642Z,756
2017-05-02T04:28:39.644Z,708
2017-05-02T04:29:39.669Z,644
2017-05-02T04:30:39.691Z,608
2017-05-02T04:31:39.710Z,596
2017-05-02T04:32:39.736Z,592
2017-05-02T04:33:39.753Z,604
2017-05-02T04:34:39.768Z,620
2017-05-02T04:35:39.487Z,648
2017-05-02T04:36:54.430Z,704
2017-05-02T04:37:54.140Z,756
2017-05-02T04:38:39.852Z,772
2017-05-02T04:39:39.871Z,784
2017-05-02T04:40:39.887Z,788
2017-05-02T04:41:54.524Z,796
2017-05-02T04:42:39.328Z,804
2017-05-02T04:43:39.953Z,812
2017-05-02T04:44:39.666Z,812
2017-05-02T04:45:39.991Z,808
2017-05-02T04:46:39.407Z,804
2017-05-02T04:47:40.036Z,796
2017-05-02T04:48:40.058Z,788
2017-05-02T04:49:54.689Z,784
2017-05-02T04:51:40.113Z,784
2017-05-02T04:52:40.136Z,780
2017-05-02T04:53:40.161Z,784
2017-05-02T04:55:40.195Z,776
2017-05-02T04:56:40.219Z,780
2017-05-02T04:57:54.853Z,804
2017-05-02T04:58:39.952Z,824
2017-05-02T04:59:40.276Z,844
2017-05-02T05:00:40.302Z,872
2017-05-02T05:01:40.316Z,896
2017-05-02T05:02:40.037Z,924
2017-05-02T05:03:40.362Z,956
2017-05-02T05:04:40.378Z,1000
2017-05-02T05:05:40.401Z,1052
2017-05-02T05:06:55.035Z,1144
2017-05-02T05:07:40.446Z,1216
2017-05-02T05:08:40.467Z,1340
2017-05-02T05:09:40.481Z,1508
2017-05-02T05:12:40.541Z,2144
2017-05-02T05:13:55.179Z,2540
2017-05-02T05:14:40.587Z,2780
2017-05-02T05:15:40.603Z,3112
2017-05-02T05:16:40.621Z,3404
2017-05-02T05:17:40.645Z,3688
2017-05-02T05:18:40.667Z,4792
2017-05-02T05:19:55.305Z,4212
2017-05-02T05:20:40.715Z,4188
2017-05-02T05:21:40.436Z,4456
2017-05-02T05:22:55.363Z,4756
2017-05-02T05:23:40.769Z,4692
2017-05-02T05:24:40.799Z,4464
2017-05-02T05:25:40.810Z,4128
2017-05-02T05:26:40.829Z,3892
2017-05-02T05:27:40.853Z,3648
2017-05-02T05:28:55.185Z,3512
2017-05-02T05:29:40.893Z,3672
2017-05-02T05:30:40.913Z,3904
2017-05-02T05:31:40.939Z,4072
2017-05-02T05:32:40.958Z,4268
2017-05-02T05:33:40.976Z,4656
2017-05-02T05:34:40.998Z,5160
2017-05-02T05:35:41.018Z,5640
2017-05-02T05:36:41.039Z,5900
2017-05-02T05:37:41.061Z,6024
2017-05-02T05:38:55.699Z,6160
2017-05-02T05:39:41.104Z,6172
2017-05-02T05:40:55.739Z,6256
2017-05-02T05:41:41.142Z,6396
2017-05-02T05:42:41.188Z,6660
2017-05-02T05:43:41.187Z,6992
2017-05-02T05:45:41.233Z,7400
2017-05-02T05:46:41.248Z,7724
2017-05-02T05:47:40.977Z,8324
2017-05-02T05:48:41.290Z,9056
2017-05-02T05:49:41.313Z,9780
2017-05-02T05:50:41.351Z,10736
2017-05-02T05:51:41.353Z,11812
2017-05-02T05:52:41.374Z,12632
2017-05-02T05:53:41.401Z,12388
2017-05-02T05:54:41.418Z,11856
2017-05-02T05:55:41.437Z,11984
2017-05-02T05:56:41.465Z,11376
2017-05-02T05:57:41.496Z,11632
2017-05-02T05:58:41.509Z,13836
2017-05-02T06:00:56.163Z,15616
2017-05-02T06:01:41.270Z,16468
2017-05-02T06:02:41.592Z,19968
2017-05-02T06:03:41.614Z,36800
2017-05-02T06:04:41.636Z,54368
2017-05-02T06:05:41.361Z,54336
2017-05-02T06:06:41.375Z,58272
2017-05-02T06:07:41.097Z,54048
2017-05-02T06:08:56.039Z,41344
2017-05-02T06:09:41.753Z,39168
2017-05-02T06:10:41.779Z,40032
2017-05-02T06:11:41.798Z,40608
2017-05-02T06:12:56.438Z,37728
2017-05-02T06:15:41.901Z,19328
2017-05-02T06:16:56.535Z,16672
2017-05-02T06:17:41.947Z,15684
2017-05-02T06:18:41.968Z,15764
2017-05-02T06:19:42.025Z,16512
2017-05-02T06:20:42.019Z,15096
2017-05-02T06:21:42.042Z,18016
2017-05-02T06:22:42.070Z,19808
2017-05-02T06:23:41.791Z,15012
2017-05-02T06:24:42.116Z,14628
2017-05-02T06:25:56.756Z,11672
2017-05-02T06:26:41.895Z,10716
2017-05-02T06:27:56.808Z,9828
2017-05-02T06:29:42.239Z,8820
2017-05-02T06:30:41.955Z,8452
2017-05-02T06:32:56.926Z,8096
2017-05-02T06:33:42.336Z,8064
2017-05-02T06:34:42.354Z,8052
2017-05-02T06:35:42.378Z,8056
2017-05-02T06:36:42.406Z,8052
2017-05-02T06:37:42.436Z,7928
2017-05-02T06:38:42.453Z,7668
2017-05-02T06:39:42.474Z,7440
2017-05-02T06:40:57.114Z,7420
2017-05-02T06:41:42.524Z,7400
2017-05-02T06:42:42.550Z,7316
2017-05-02T06:43:42.261Z,7264
2017-05-02T06:44:57.205Z,7112
2017-05-02T06:45:42.310Z,7000
2017-05-02T06:46:42.634Z,6892
2017-05-02T06:47:42.662Z,6900
2017-05-02T06:48:57.299Z,7132
2017-05-02T06:49:42.705Z,7352
2017-05-02T06:51:42.751Z,7980
2017-05-02T06:52:57.445Z,8080
2017-05-02T06:53:42.800Z,8008
2017-05-02T06:54:42.824Z,7748
2017-05-02T06:55:42.849Z,7276
2017-05-02T06:56:42.866Z,6940
2017-05-02T06:57:42.893Z,6648
2017-05-02T06:58:42.922Z,6372
2017-05-02T06:59:57.549Z,6088
2017-05-02T07:00:42.956Z,5980
2017-05-02T07:01:42.982Z,5920
2017-05-02T07:02:43.031Z,5936
2017-05-02T07:03:57.644Z,5848
2017-05-02T07:04:43.055Z,5724
2017-05-02T07:05:43.072Z,5516
2017-05-02T07:06:43.095Z,5324
2017-05-02T07:07:43.116Z,5132
2017-05-02T07:08:43.140Z,4956
2017-05-02T07:09:43.163Z,4824
2017-05-02T07:10:43.393Z,4732
2017-05-02T07:11:43.208Z,4660
2017-05-02T07:12:43.238Z,4588
2017-05-02T07:13:43.254Z,4532
2017-05-02T07:14:43.274Z,4476
2017-05-02T07:16:43.320Z,4416
2017-05-02T07:17:43.347Z,4432
2017-05-02T07:18:43.367Z,4484
2017-05-02T07:19:43.387Z,4556
2017-05-02T07:20:42.806Z,4616
2017-05-02T07:21:43.430Z,4664
2017-05-02T07:22:43.453Z,4712
2017-05-02T07:23:43.478Z,4768
2017-05-02T07:24:43.498Z,4840
2017-05-02T07:25:43.521Z,4900
2017-05-02T07:26:58.162Z,4920
2017-05-02T07:27:43.568Z,4900
2017-05-02T07:28:43.286Z,4864
2017-05-02T07:29:43.610Z,4792
2017-05-02T07:30:43.638Z,4696
2017-05-02T07:32:43.378Z,4372
2017-05-02T07:33:43.703Z,4188
2017-05-02T07:35:58.360Z,4104
2017-05-02T07:37:43.795Z,4076
2017-05-02T07:38:43.813Z,4004
2017-05-02T07:39:43.835Z,3968
2017-05-02T07:40:43.855Z,3956
2017-05-02T07:41:43.887Z,3944
2017-05-02T07:42:43.901Z,3920
2017-05-02T07:43:43.921Z,3888
2017-05-02T07:44:43.945Z,3908
2017-05-02T07:45:44.004Z,3976
2017-05-02T07:46:43.994Z,4028
2017-05-02T07:47:44.010Z,4084
2017-05-02T07:48:44.037Z,4120
2017-05-02T07:49:44.054Z,4180
2017-05-02T07:50:44.077Z,4316
2017-05-02T07:51:58.722Z,4480
2017-05-02T07:52:44.133Z,4520
2017-05-02T07:53:44.145Z,4564
2017-05-02T07:54:44.170Z,4620
2017-05-02T07:55:44.216Z,4656
2017-05-02T07:56:44.210Z,4664
2017-05-02T07:57:44.230Z,4544
2017-05-02T07:58:44.257Z,4244
2017-05-02T07:59:44.577Z,3928
2017-05-02T08:01:44.318Z,3340
2017-05-02T08:02:58.959Z,3156
2017-05-02T08:03:44.368Z,3140
2017-05-02T08:04:44.394Z,3072
2017-05-02T08:05:44.415Z,3044
2017-05-02T08:06:44.429Z,2820
2017-05-02T08:07:59.069Z,2772
2017-05-02T08:08:44.474Z,2820
2017-05-02T08:09:59.119Z,3112
2017-05-02T08:10:44.525Z,3168
2017-05-02T08:11:44.543Z,3136
2017-05-02T08:12:59.182Z,3424
2017-05-02T08:13:44.585Z,3560
2017-05-02T08:14:44.606Z,3740
2017-05-02T08:15:44.634Z,3868
2017-05-02T08:16:44.649Z,3816
2017-05-02T08:17:44.681Z,3928
2017-05-02T08:18:59.308Z,3660
2017-05-02T08:19:44.716Z,3676
2017-05-02T08:20:59.355Z,3916
2017-05-02T08:21:44.759Z,4100
2017-05-02T08:22:44.778Z,4320
2017-05-02T08:23:59.119Z,4092
2017-05-02T08:24:44.837Z,4080
2017-05-02T08:25:59.471Z,3680
2017-05-02T08:26:44.870Z,3544
2017-05-02T08:28:44.916Z,3464
2017-05-02T08:29:44.935Z,3560
2017-05-02T08:30:44.959Z,3908
2017-05-02T08:31:44.988Z,4284
2017-05-02T08:32:45.008Z,4464
2017-05-02T08:33:45.026Z,4220
2017-05-02T08:34:45.047Z,4000
2017-05-02T08:35:59.687Z,3716
2017-05-02T08:36:45.095Z,3708
2017-05-02T08:37:45.117Z,3824
2017-05-02T08:38:59.763Z,3968
2017-05-02T08:39:45.159Z,4040
2017-05-02T08:40:45.184Z,3948
2017-05-02T08:41:45.205Z,3944
2017-05-02T08:42:59.847Z,3912
2017-05-02T08:43:45.248Z,3876
2017-05-02T08:44:45.270Z,3972
2017-05-02T08:45:45.296Z,4136
2017-05-02T08:46:45.312Z,4280
2017-05-02T08:47:45.338Z,4252
2017-05-02T08:48:45.365Z,4160
2017-05-02T08:50:45.403Z,4204
2017-05-02T08:51:45.432Z,4096
2017-05-02T08:52:45.451Z,4088
2017-05-02T08:53:45.471Z,4232
2017-05-02T08:54:45.493Z,4324
2017-05-02T08:55:45.522Z,4264
2017-05-02T08:56:45.533Z,4220
2017-05-02T08:57:45.658Z,3980
2017-05-02T08:58:45.584Z,3948
2017-05-02T08:59:45.606Z,3924
2017-05-02T09:00:45.625Z,3804
2017-05-02T09:02:00.263Z,3636
2017-05-02T09:02:45.670Z,3496
2017-05-02T09:03:45.687Z,3560
2017-05-02T09:04:45.723Z,3632
2017-05-02T09:05:45.733Z,3628
2017-05-02T09:06:45.452Z,3716
2017-05-02T09:08:00.101Z,3808
2017-05-02T09:08:45.498Z,3896
2017-05-02T09:09:45.829Z,3792
2017-05-02T09:11:00.462Z,3620
2017-05-02T09:11:45.870Z,3648
2017-05-02T09:12:45.893Z,3724
2017-05-02T09:13:45.910Z,3704
2017-05-02T09:14:45.971Z,3820
2017-05-02T09:15:45.956Z,3968
2017-05-02T09:16:45.979Z,4012
2017-05-02T09:17:46.004Z,3936
2017-05-02T09:18:46.024Z,3960
2017-05-02T09:19:46.045Z,4124
2017-05-02T09:21:00.682Z,4016
2017-05-02T09:21:46.088Z,4052
2017-05-02T09:23:46.138Z,3780
2017-05-02T09:24:46.162Z,3616
2017-05-02T09:25:46.180Z,3696
2017-05-02T09:27:00.817Z,3788
2017-05-02T09:27:46.222Z,3840
2017-05-02T09:28:46.254Z,3656
2017-05-02T09:29:46.272Z,3588
2017-05-02T09:30:46.000Z,3372
2017-05-02T09:31:46.308Z,3172
2017-05-02T09:32:46.331Z,3124
2017-05-02T09:34:00.971Z,3212
2017-05-02T09:35:00.992Z,3320
2017-05-02T09:36:01.013Z,3408
2017-05-02T09:36:46.428Z,3332
2017-05-02T09:37:46.440Z,3208
2017-05-02T09:38:46.518Z,3232
2017-05-02T09:40:01.102Z,3228
2017-05-02T09:40:46.512Z,3232
2017-05-02T09:41:46.531Z,3212
2017-05-02T09:43:01.170Z,3384
2017-05-02T09:43:46.575Z,3468
2017-05-02T09:44:46.609Z,3500
2017-05-02T09:45:46.630Z,3392
2017-05-02T09:46:46.639Z,3284
2017-05-02T09:47:46.673Z,3308
2017-05-02T09:48:46.686Z,3396
2017-05-02T09:50:46.729Z,3164
2017-05-02T09:52:01.366Z,3300
2017-05-02T09:53:01.090Z,3384
2017-05-02T09:53:46.797Z,3224
2017-05-02T09:55:01.435Z,3256
2017-05-02T09:56:01.455Z,3540
2017-05-02T09:56:46.860Z,3600
2017-05-02T09:57:46.885Z,3572
2017-05-02T09:59:01.526Z,3712
2017-05-02T10:00:01.559Z,3668
2017-05-02T10:00:46.954Z,3608
2017-05-02T10:01:46.971Z,3408
2017-05-02T10:02:46.997Z,3112
2017-05-02T10:03:47.024Z,3080
2017-05-02T10:04:47.037Z,3120
2017-05-02T10:05:47.060Z,3096
2017-05-02T10:06:47.094Z,2972
2017-05-02T10:07:47.109Z,2772
2017-05-02T10:08:47.786Z,2608
2017-05-02T10:10:47.175Z,2652
2017-05-02T10:12:01.811Z,3052
2017-05-02T10:13:01.878Z,3160
2017-05-02T10:14:01.554Z,3032
2017-05-02T10:14:47.318Z,3140
2017-05-02T10:15:46.987Z,3260
2017-05-02T10:16:47.306Z,3132
2017-05-02T10:17:47.328Z,2940
2017-05-02T10:18:47.404Z,2820
2017-05-02T10:19:47.524Z,2872
2017-05-02T10:20:47.394Z,2968
2017-05-02T10:21:47.466Z,3036
2017-05-02T10:22:47.138Z,3028
2017-05-02T10:24:02.093Z,3140
2017-05-02T10:24:47.480Z,3192
2017-05-02T10:25:47.559Z,3196
2017-05-02T10:26:47.565Z,3172
2017-05-02T10:27:47.547Z,3200
2017-05-02T10:28:47.574Z,3348
2017-05-02T10:29:47.591Z,3432
2017-05-02T10:30:47.614Z,3620
2017-05-02T10:31:47.644Z,3784
2017-05-02T10:32:47.661Z,3904
2017-05-02T10:33:47.683Z,3888
2017-05-02T10:34:47.401Z,3812
2017-05-02T10:36:02.343Z,3780
2017-05-02T10:36:47.746Z,3888
2017-05-02T10:37:47.771Z,4004
2017-05-02T10:38:47.848Z,4072
2017-05-02T10:39:47.511Z,4180
2017-05-02T10:40:47.837Z,4388
2017-05-02T10:42:47.883Z,4880
2017-05-02T10:43:47.907Z,5196
2017-05-02T10:44:47.922Z,5436
2017-05-02T10:46:02.596Z,5560
2017-05-02T10:46:47.969Z,5424
2017-05-02T10:47:47.992Z,5104
2017-05-02T10:48:48.014Z,4704
2017-05-02T10:49:48.035Z,4216
2017-05-02T10:50:48.063Z,3576
2017-05-02T10:51:47.777Z,3420
2017-05-02T10:52:47.804Z,3836
2017-05-02T10:53:48.124Z,4052
2017-05-02T10:54:48.146Z,4200
2017-05-02T10:55:48.173Z,4888
2017-05-02T10:56:48.188Z,5744
2017-05-02T10:57:48.216Z,6332
2017-05-02T10:58:48.238Z,6632
2017-05-02T10:59:48.260Z,7060
2017-05-02T11:01:03.245Z,7376
2017-05-02T11:02:02.614Z,6936
2017-05-02T11:02:48.020Z,6212
2017-05-02T11:03:48.348Z,5488
2017-05-02T11:05:02.988Z,5312
2017-05-02T11:05:48.393Z,5100
2017-05-02T11:06:48.415Z,4680
2017-05-02T11:07:48.436Z,4288
2017-05-02T11:09:03.075Z,3884
2017-05-02T11:09:48.490Z,3672
2017-05-02T11:11:03.118Z,3604
2017-05-02T11:11:48.526Z,3532
2017-05-02T11:12:48.547Z,3136
2017-05-02T11:13:48.574Z,2772
2017-05-02T11:14:48.593Z,2548
2017-05-02T11:15:48.622Z,2448
2017-05-02T11:16:48.638Z,2428
2017-05-02T11:18:03.276Z,2480
2017-05-02T11:18:48.684Z,2496
2017-05-02T11:19:48.712Z,2360
2017-05-02T11:20:48.428Z,2200
2017-05-02T11:21:48.744Z,2168
2017-05-02T11:22:48.820Z,2128
2017-05-02T11:23:48.799Z,2204
2017-05-02T11:25:03.432Z,2208
2017-05-02T11:25:48.846Z,2244
2017-05-02T11:26:48.861Z,2360
2017-05-02T11:27:48.884Z,2380
2017-05-02T11:28:48.909Z,2380
2017-05-02T11:30:48.956Z,2236
2017-05-02T11:31:48.976Z,2124
2017-05-02T11:32:49.003Z,2012
2017-05-02T11:34:03.681Z,2004
2017-05-02T11:34:49.047Z,2052
2017-05-02T11:35:49.060Z,2152
2017-05-02T11:36:49.094Z,2344
2017-05-02T11:37:49.107Z,2516
2017-05-02T11:38:49.127Z,2456
2017-05-02T11:39:48.844Z,2304
2017-05-02T11:40:48.864Z,2148
2017-05-02T11:41:49.194Z,1956
2017-05-02T11:42:49.220Z,1976
2017-05-02T11:43:49.240Z,2148
2017-05-02T11:44:48.959Z,2360
2017-05-02T11:45:49.333Z,2524
2017-05-02T11:47:49.373Z,2792
2017-05-02T11:49:03.964Z,2820
2017-05-02T11:49:49.366Z,2836
2017-05-02T11:50:49.094Z,2820
2017-05-02T11:51:49.412Z,2788
2017-05-02T11:52:49.433Z,2612
2017-05-02T11:53:49.455Z,2444
2017-05-02T11:54:49.475Z,2212
2017-05-02T11:55:49.256Z,2164
2017-05-02T11:56:49.557Z,2312
2017-05-02T11:58:04.156Z,2588
2017-05-02T11:58:49.563Z,2744
2017-05-02T11:59:49.588Z,2876
2017-05-02T12:00:49.707Z,2728
2017-05-02T12:02:04.242Z,2564
2017-05-02T12:03:49.723Z,2936
2017-05-02T12:04:49.707Z,2964
2017-05-02T12:05:49.713Z,2944
2017-05-02T12:06:49.734Z,2864
2017-05-02T12:07:49.473Z,2924
2017-05-02T12:08:49.779Z,3224
2017-05-02T12:11:04.438Z,3296
2017-05-02T12:12:04.154Z,3116
2017-05-02T12:12:49.860Z,2932
2017-05-02T12:13:49.933Z,2700
2017-05-02T12:15:04.519Z,2696
2017-05-02T12:15:49.930Z,2904
2017-05-02T12:16:50.100Z,3120
2017-05-02T12:18:04.587Z,3312
2017-05-02T12:18:49.994Z,3548
2017-05-02T12:21:04.648Z,3984
2017-05-02T12:22:50.073Z,3992
2017-05-02T12:23:50.094Z,4332
2017-05-02T12:24:50.323Z,4944
2017-05-02T12:25:50.138Z,5432
2017-05-02T12:26:49.912Z,5344
2017-05-02T12:27:49.880Z,5084
2017-05-02T12:28:50.254Z,4908
2017-05-02T12:29:50.224Z,4568
2017-05-02T12:31:05.110Z,4400
2017-05-02T12:32:04.879Z,4224
2017-05-02T12:32:49.991Z,4048
2017-05-02T12:33:50.312Z,3652
2017-05-02T12:34:50.329Z,3328
2017-05-02T12:35:49.744Z,3048
2017-05-02T12:37:05.339Z,2816
2017-05-02T12:37:50.395Z,2748
2017-05-02T12:38:50.463Z,2704
2017-05-02T12:39:50.441Z,2628
2017-05-02T12:40:50.162Z,2536
2017-05-02T12:41:50.175Z,2376
2017-05-02T12:42:50.603Z,2304
2017-05-02T12:43:50.321Z,2436
2017-05-02T12:44:50.242Z,2672
2017-05-02T12:46:50.293Z,2812
2017-05-02T12:47:50.615Z,2860
2017-05-02T12:48:50.632Z,2824
2017-05-02T12:49:50.350Z,2828
2017-05-02T12:50:50.667Z,2868
2017-05-02T12:51:50.388Z,2808
2017-05-02T12:53:05.376Z,2696
2017-05-02T12:53:50.738Z,2724
2017-05-02T12:56:50.461Z,2432
2017-05-02T12:57:15.200Z,2444
2017-05-02T12:58:00.612Z,2440
2017-05-02T12:59:14.938Z,2348
2017-05-02T13:00:00.391Z,2300
2017-05-02T13:01:01.120Z,2216
2017-05-02T13:02:00.382Z,2172
2017-05-02T13:03:00.408Z,2216
2017-05-02T13:04:15.041Z,2272
2017-05-02T13:05:00.456Z,2296
2017-05-02T13:07:00.536Z,2328
2017-05-02T13:08:00.512Z,2284
2017-05-02T13:09:15.149Z,2188
2017-05-02T13:10:00.861Z,2164
2017-05-02T13:11:15.543Z,2080
2017-05-02T13:12:00.897Z,1988
2017-05-02T13:13:00.919Z,1912
2017-05-02T13:14:15.255Z,1904
2017-05-02T13:15:00.965Z,1900
2017-05-02T13:18:00.735Z,1816
2017-05-02T13:19:00.745Z,1856
2017-05-02T13:20:15.379Z,1856
2017-05-02T13:22:01.106Z,1620
2017-05-02T13:23:01.125Z,1612
2017-05-02T13:24:01.155Z,1680
2017-05-02T13:25:01.212Z,1704
2017-05-02T13:26:16.108Z,1664
2017-05-02T13:27:00.910Z,1708
2017-05-02T13:28:01.234Z,1796
2017-05-02T13:29:00.645Z,1800
2017-05-02T13:30:15.888Z,1816
2017-05-02T13:31:01.296Z,1856
2017-05-02T13:32:01.313Z,1904
2017-05-02T13:33:01.347Z,2040
2017-05-02T13:34:01.355Z,2216
2017-05-02T13:35:01.384Z,2376
2017-05-02T13:36:16.013Z,2472
2017-05-02T13:37:01.422Z,2548
2017-05-02T13:38:01.458Z,2624
2017-05-02T13:39:01.462Z,2620
2017-05-02T13:40:01.483Z,2548
2017-05-02T13:41:01.503Z,2488
2017-05-02T13:42:01.523Z,2452
2017-05-02T13:43:01.552Z,2428
2017-05-02T13:44:01.574Z,2440
2017-05-02T13:45:01.600Z,2516
2017-05-02T13:46:01.608Z,2488
2017-05-02T13:47:16.243Z,2520
2017-05-02T13:48:01.740Z,2588
2017-05-02T13:49:16.236Z,2712
2017-05-02T13:50:01.705Z,2720
2017-05-02T13:51:01.712Z,2712
2017-05-02T13:52:16.350Z,2784
2017-05-02T13:54:01.778Z,2920
2017-05-02T13:55:01.797Z,2916
2017-05-02T13:56:01.869Z,2852
2017-05-02T13:57:01.841Z,2820
2017-05-02T13:58:01.906Z,2932
2017-05-02T13:59:01.882Z,2976
2017-05-02T14:00:01.903Z,3008
2017-05-02T14:01:02.023Z,3236
2017-05-02T14:02:01.995Z,3432
2017-05-02T14:03:16.585Z,3408
2017-05-02T14:04:01.988Z,3200
2017-05-02T14:05:02.010Z,2844
2017-05-02T14:06:02.083Z,2716
2017-05-02T14:07:16.665Z,2716
2017-05-02T14:08:02.080Z,2684
2017-05-02T14:09:02.095Z,2624
2017-05-02T14:10:16.734Z,2532
2017-05-02T14:11:02.147Z,2440
2017-05-02T14:12:02.155Z,2276
2017-05-02T14:13:02.179Z,2124
2017-05-02T14:14:02.248Z,2048
2017-05-02T14:15:02.225Z,1956
2017-05-02T14:16:02.237Z,1900
2017-05-02T14:17:02.311Z,1828
2017-05-02T14:18:02.285Z,1748
2017-05-02T14:20:02.326Z,2044
2017-05-02T14:21:02.342Z,2204
2017-05-02T14:22:02.371Z,2228
2017-05-02T14:23:02.387Z,2180
2017-05-02T14:24:02.410Z,2044
2017-05-02T14:25:02.431Z,1884
2017-05-02T14:26:02.448Z,1828
2017-05-02T14:27:02.470Z,1896
2017-05-02T14:28:02.493Z,1960
2017-05-02T14:29:02.519Z,2020
2017-05-02T14:30:02.538Z,2044
2017-05-02T14:31:02.553Z,2064
2017-05-02T14:32:02.272Z,2112
2017-05-02T14:33:17.215Z,2100
2017-05-02T14:34:02.618Z,2044